SKPE/PEI METAR and TAF weather

Enter ICAO airport designator
Station Type Date Time Source
SKPE METAR 2019/10/15 04:00 UTC NOAA

SKPE 150400Z 10006KT 9999 FEW015 SCT200 20/18 A3009


Station Type Date Time Source
SKPE Decoded METAR 2019/10/15 04:00 UTC NOAA

Pereira / Matecana, Colombia (SKPE) 04-49N 075-44W 1342M
Oct 15, 2019 - 12:00 AM EDT / 2019.10.15 0400 UTC
Wind: from the E (100 degrees) at 7 MPH (6 KT):0
Visibility: greater than 7 mile(s):0
Sky conditions: partly cloudy
Temperature: 68 F (20 C)
Dew Point: 64 F (18 C)
Relative Humidity: 88%
Pressure (altimeter): 30.09 in. Hg (1018 hPa)
ob: SKPE 150400Z 10006KT 9999 FEW015 SCT200 20/18 A3009
cycle: 4

Station Type Date Time Source
SKPE TAF 2019/10/15 06:30 UTC NOAA

TAF SKPE 150430Z 1506/1606 VRB02KT 9999 FEW015 SCT090 PROB40
TEMPO 1510/1513 5000 BCFG SCT008 BKN080
BECMG 1514/1516 29012KT TX28/1519Z TN18/1511Z

Example: see airport list